Climatologie mensuelle pour décembre 2005

Valeurs journalières de 0h à 0h
Jour Température Vent Pluie Humidité Pression Ensoleillement (% max) DJUC DJUF
min moy max Vent moyen (rafale max) Secteur
  1   -1.4 °C 1.9 °C 4.1 °C 0.4 km/h (7.8 km/h) SE 0 mm 74 % 1010.8 hPa 0:00 h   (0%) 16.1 0
  2   -3.1 °C 0 °C 2.2 °C 0.3 km/h (3.7 km/h) SSE 20.2 mm 80 % 1002.9 hPa 0:00 h   (0%) 18 0
  3   1.9 °C 5.3 °C 8.6 °C 3.9 km/h (22.8 km/h) S 2.1 mm 76 % 1005.6 hPa 0:00 h   (0%) 12.7 0
  4   7.5 °C 8.4 °C 9.8 °C 7.7 km/h (28.8 km/h) S 9.3 mm 69 % 1006.1 hPa 0:00 h   (0%) 9.6 0
  5   4.2 °C 6.5 °C 8.6 °C 3.7 km/h (23.9 km/h) S 1 mm 73 % 1003.9 hPa 0:00 h   (0%) 11.5 0
  6   2 °C 4.5 °C 7.1 °C 1.1 km/h (14.8 km/h) S 0 mm 72 % 1007.4 hPa 0:00 h   (0%) 13.5 0
  7   3.4 °C 4.5 °C 6.3 °C 1.1 km/h (12.6 km/h) S 0.5 mm 72 % 1017.4 hPa 0:00 h   (0%) 13.5 0
  8   2.3 °C 3.6 °C 5.8 °C 0.9 km/h (13.7 km/h) SSE 1 mm 77 % 1018.3 hPa 0:00 h   (0%) 14.4 0
  9   1.8 °C 3.6 °C 4.8 °C 10.1 km/h (49.7 km/h) NNE 3.6 mm 78 % 1025.9 hPa 0:00 h   (0%) 14.4 0
  10   2 °C 2.6 °C 2.9 °C 10.4 km/h (38.2 km/h) NNE 0 mm 70 % 1032.2 hPa 0:00 h   (0%) 15.4 0
  11   0.2 °C 0.9 °C 2 °C 8.7 km/h (37.1 km/h) NNE 0 mm 71 % 1029.9 hPa 0:00 h   (0%) 17.1 0
  12   -1.7 °C -0.4 °C 0.6 °C 2.8 km/h (16.2 km/h) NE 0 mm 72 % 1025.7 hPa 0:00 h   (0%) 18.4 0
  13   -0.7 °C 1.3 °C 3.2 °C 1.7 km/h (16.9 km/h) NE 0 mm 66 % 1026.5 hPa 0:00 h   (0%) 16.7 0
  14   1.2 °C 1.9 °C 2.3 °C 11.5 km/h (46.8 km/h) NNE 0 mm 70 % 1022.6 hPa 0:00 h   (0%) 16.1 0
  15   -1.8 °C 0.5 °C 3.9 °C 1.8 km/h (25.9 km/h) SE 0 mm 70 % 1022.1 hPa 0:00 h   (0%) 17.5 0
  16   -1.2 °C 3.2 °C 6.8 °C 3.5 km/h (27 km/h) SSE 2.1 mm 74 % 1016.4 hPa 0:00 h   (0%) 14.8 0
  17   0.6 °C 3.3 °C 7.1 °C 2.7 km/h (32 km/h) S 1 mm 67 % 1014 hPa 0:00 h   (0%) 14.7 0
  18   -1.2 °C 0.4 °C 2.9 °C 0.3 km/h (4.3 km/h) SSE 0.5 mm 66 % 1022.6 hPa 0:00 h   (0%) 17.6 0
  19   -3.4 °C -0.7 °C 1.4 °C 0.1 km/h (5 km/h) SE 0 mm 70 % 1026.5 hPa 0:00 h   (0%) 18.7 0
  20   0 °C 0.7 °C 1.4 °C 1.7 km/h (19.4 km/h) NE 0.5 mm 79 % 1029.5 hPa 0:00 h   (0%) 17.3 0
  21   -0.8 °C -0.1 °C 1.2 °C 3.3 km/h (21.2 km/h) NNE 0 mm 77 % 1031 hPa 0:00 h   (0%) 18.1 0
  22   -2.6 °C -0.4 °C 0.6 °C 0.6 km/h (4.7 km/h) SE 0 mm 74 % 1031.6 hPa 0:00 h   (0%) 18.4 0
  23   -3.1 °C 0 °C 3.1 °C 0.1 km/h (2.2 km/h) SE 0 mm 79 % 1027.6 hPa 0:00 h   (0%) 18 0
  24   -0.7 °C 1.6 °C 2.9 °C 0 km/h (2.2 km/h) SO 0 mm 81 % 1024.7 hPa 0:00 h   (0%) 16.4 0
  25   1.7 °C 2.2 °C 2.9 °C 1.6 km/h (19.8 km/h) SE 0 mm 78 % 1019.3 hPa 0:00 h   (0%) 15.8 0
  26   -1.5 °C 1.3 °C 3.1 °C 0.5 km/h (7.2 km/h) NE 0 mm 74 % 1012.1 hPa 0:00 h   (0%) 16.7 0
  27   -4.2 °C -1.7 °C 1.4 °C 1.6 km/h (15.5 km/h) SSE 0 mm 69 % 1005.1 hPa 0:00 h   (0%) 19.7 0
  28   -6.2 °C -3.6 °C -1.5 °C 0.6 km/h (14 km/h) SSE 0 mm 66 % 1008.3 hPa 0:00 h   (0%) 21.6 0
  29   -4.6 °C -3 °C -0.4 °C 0.6 km/h (6.8 km/h) SSE 0 mm 67 % 1015.7 hPa 0:00 h   (0%) 21 0
  30   -6.9 °C -3.6 °C -1.1 °C 0.3 km/h (7.2 km/h) SSE 0 mm 72 % 1016.3 hPa 0:00 h   (0%) 21.6 0
  31   -0.9 °C 4.6 °C 9.8 °C 4.8 km/h (33.1 km/h) SSE 14 mm 83 % 1009 hPa 0:00 h   (0%) 13.4 0
-6.9 °C 1.6 °C 9.8 °C 2.9 km/h (49.7 km/h) 55.8 mm 73 % 1018.3 hPa 0:00 h 508.7 0.0